Choose a state:
Most recent flow and stage for Indiana
(Stations highlighted in red are currently above flood stage)
USGS
station
ID
USGS station name NWS
flood
stage
(ft)
Most recent
stage
(ft)
Most recent
flow
(cfs)
Historical
peaks
(cfs)
Most recent
local
date/time
NWS
station
ID
03274650 WHITEWATER RIVER NEAR ECONOMY, IN   3.37 2.54 1,490 2024-07-12 13:45:00 EMYI3
03275000 WHITEWATER RIVER NEAR ALPINE, IN 14 5.37 351 37,100 2024-07-12 13:00:00 ALPI3
03275500 EAST FORK WHITEWATER RIVER AT RICHMOND, IN   0.93 115 15,000 2024-07-12 13:15:00 RCWI3
03275600 EAST FORK WHITEWATER RIVER AT ABINGTON, IN 14 4.49 624 16,700 2024-07-12 13:45:00 ABTI3
03275990 BROOKVILLE LAKE AT BROOKVILLE, IN   750.20

 

  2024-07-12 13:45:00  
03276000 EAST FORK WHITEWATER RIVER AT BROOKVILLE, IN   5.44

 

36,100 2024-07-12 12:45:00 BOOI3
03276500 WHITEWATER RIVER AT BROOKVILLE, IN 20 5.18 2,540 81,800 2024-07-12 12:45:00 BRKI3
03276650 TANNERS CREEK AT LAWRENCEBURG, IN   31.80

 

  2024-07-12 13:00:00  
03291780 INDIAN-KENTUCK CREEK NEAR CANAAN, IN   3.02 1.73 8,300 2024-07-12 13:15:00 CANI3
03294000 SILVER CREEK NEAR SELLERSBURG, IN   4.25 40.3 19,600 2024-07-12 13:30:00 SELI3
03294445 SILVER CK AT BROWN'S STATION WAY AT NEW ALBANY, IN   6.77

 

  2024-07-12 14:00:00  
03302220 BUCK CREEK NEAR NEW MIDDLETOWN, IN   1.48 27.8 20,500 2024-07-12 13:15:00 NMDI3
03302680 WEST FORK BLUE RIVER AT SALEM, IN   3.09 1.47 18,400 2024-07-12 13:15:00 SEMI3
03302800 BLUE RIVER AT FREDERICKSBURG, IN 20 2.77 38.9 41,700 2024-07-12 13:30:00 FRDI3
03302849 WHISKEY RUN AT MARENGO, IN   1.35

 

2,920 2024-07-12 13:30:00 MGOI3
03303000 BLUE RIVER NEAR WHITE CLOUD, IN   2.53 188 31,000 2024-07-12 13:15:00 WHCI3
03303280 OHIO RIVER AT CANNELTON DAM AT CANNELTON, IN 42 11.75 35,000 768,000 2024-07-12 13:00:00 CNNI3
03303300 MIDDLE FORK ANDERSON RIVER AT BRISTOW, IN   4.98 8.96 15,000 2024-07-12 13:30:00 BSTI3
03304300 OHIO RIVER AT NEWBURGH LOCK AND DAM, IN 38 14.02

 

2024-07-12 13:00:00 NBGI3
03322000 OHIO RIVER AT EVANSVILLE, IN 42 14.35

 

1,410,000 2024-07-12 13:00:00 EVVI3
03322011 PIGEON CREEK NEAR FORT BRANCH   5.26 97.5 3,750 2024-07-12 13:30:00 FTBI3
03322900 WABASH RIVER AT LINN GROVE, IN 11 5.07 117 14,500 2024-07-12 12:45:00 LYNI3
03323000 WABASH RIVER AT BLUFFTON, IN 10 2.19 214 25,000 2024-07-12 13:45:00 BLFI3
03323090 WABASH RIVER AT MARKLE, IN   63.61

 

  2024-07-12 13:15:00  
03323450 J. EDWARD ROUSH LAKE NEAR HUNTINGTON, IN   749.99

 

  2024-07-12 13:45:00 HUNI3
03323500 WABASH RIVER AT HUNTINGTON, IN 20 9.80

 

14,900 2024-07-12 13:00:00 HNTI3
03324000 LITTLE RIVER NEAR HUNTINGTON, IN 15 3.66 243 5,990 2024-07-12 13:00:00 LRHI3
03324095 WABASH RIVER AT ANDREWS, IN   5.82 516   2024-07-12 13:15:00 WAHI3
03324112 WABASH RIVER NEAR LAGRO, IN   5.63 714   2024-07-12 13:15:00  
03324200 SALAMONIE RIVER AT PORTLAND, IN 11 3.20 83.0 5,310 2024-07-12 12:45:00 PORI3
03324300 SALAMONIE RIVER NEAR WARREN, IN 12 6.87 270 13,500 2024-07-12 12:45:00 WRNI3
03324450 SALAMONIE LAKE AT DORA, IN   755.65

 

  2024-07-12 14:45:00 SLAI3
03324500 SALAMONIE RIVER AT DORA, IN 11 4.53

 

16,500 2024-07-12 13:15:00 SALI3
03325000 WABASH RIVER AT WABASH, IN 14 5.35 1,590 90,000 2024-07-12 13:30:00 WABI3
03325519 MISSISSINEWA RIVER AT RIDGEVILLE, IN 10 4.25 71.1 4,230 2024-07-12 13:00:00 RIDI3
03326500 MISSISSINEWA RIVER AT MARION, IN 12 2.25 642 25,000 2024-07-12 12:45:00 MROI3
03326950 MISSISSINEWA LAKE AT PEORIA, IN   738.01

 

  2024-07-12 14:45:00 MSSI3
03327000 MISSISSINEWA RIVER AT PEORIA, IN 11 3.78

 

28,000 2024-07-12 13:00:00 MISI3
03327500 WABASH RIVER AT PERU, IN 20 8.49 3,260 115,000 2024-07-12 13:30:00 PRUI3
03327528 PIPE CREEK NEAR LEWISBURG, IN   5.01

 

  2024-07-12 13:30:00  
03328000 EEL RIVER AT NORTH MANCHESTER, IN 11 5.32 933 10,400 2024-07-12 13:30:00 NMCI3
03328500 EEL RIVER NEAR LOGANSPORT, IN 9 5.81 2,400 17,700 2024-07-12 13:45:00 ADMI3
03329000 WABASH RIVER AT LOGANSPORT, IN 15 5.56 5,440 140,000 2024-07-12 13:15:00 LGNI3
03329500 WABASH RIVER AT DELPHI, IN   7.28

 

145,000 2024-07-12 13:15:00 DLHI3
03329700 DEER CREEK NEAR DELPHI, IN 11 3.36 551 18,700 2024-07-12 13:30:00 DCDI3
03330241 TIPPECANOE RIVER AT NORTH WEBSTER, IN 6 5.44 233 446 2024-07-12 13:45:00 NWTI3
03330500 TIPPECANOE RIVER AT OSWEGO, IN 7.5 7.23 284 1,050 2024-07-12 13:45:00 OWGI3
03331040 PIKE LAKE AT WARSAW, IN   7.09

 

  2024-07-12 13:00:00 PIKI3
03331440 LAKE MAXINKUCKEE AT CULVER, IN   4.10

 

  2024-07-12 13:00:00 MAXI3
03331500 TIPPECANOE RIVER NEAR ORA, IN 12 13.05 3,690 9,580 2024-07-12 13:45:00 ORAI3
03331753 TIPPECANOE RIVER AT WINAMAC, IN 10 9.97 3,420 8,690 2024-07-12 13:00:00 WMCI3
03332345 TIPPECANOE RIVER AT BUFFALO, IN   11.60 5,180 11,100 2024-07-12 13:30:00 BLOI3
03332349 BIG MONON DITCH AT CR200N NEAR MEDARYVILLE, IN   10.42 313 914 2024-07-12 13:00:00  
03332555 TIPPECANOE RIVER AT NORWAY, IN 11.5 12.50 9,380 23,700 2024-07-12 13:45:00 TCNI3
03332605 TIPPECANOE RIVER BELOW OAKDALE DAM, IN 14 11.57 8,520 24,300 2024-07-12 13:45:00 OAKI3
03333050 TIPPECANOE RIVER NEAR DELPHI, IN 8 8.20 9,130 37,600 2024-07-12 13:45:00 DLPI3
03333450 WILDCAT CREEK NEAR JEROME, IN 9 5.90 973 9,580 2024-07-12 13:15:00 JRMI3
03333700 WILDCAT CREEK AT KOKOMO, IN 10 7.91 1,630 10,600 2024-07-12 13:00:00 OKKI3
03334000 WILDCAT CREEK AT OWASCO, IN 9 5.48 2,600 19,300 2024-07-12 13:15:00 OWCI3
03334500 SOUTH FORK WILDCAT CREEK NEAR LAFAYETTE, IN 10 3.11 224 17,900 2024-07-12 13:15:00 SFWI3
03335000 WILDCAT CREEK NEAR LAFAYETTE, IN 10 6.33 1,730 25,000 2024-07-12 13:45:00 LYTI3
03335500 WABASH RIVER AT LAFAYETTE, IN 11 11.98 19,500 190,000 2024-07-12 13:30:00 LAFI3
03335680 WABASH RIVER AT INDEPENDENCE, IN   16.41

 

  2024-07-12 13:45:00  
033356848 BIG PINE CREEK AT PINE VILLAGE, IN 11 7.73 558 12,700 2024-07-12 12:45:00 BPCI3
03335960 REDWOOD CREEK NEAR MARSHFIELD, IN   5.07 12.7 686 2024-07-12 13:00:00  
03336000 WABASH RIVER AT COVINGTON, IN 16 17.45 23,000 200,000 2024-07-12 13:45:00 CVGI3
03339280 PRAIRIE CREEK NEAR LEBANON, IN 9 5.19 25.1 2,720 2024-07-12 13:00:00 PCLI3
03339305 SUGAR CREEK NEAR THORNTOWN, IN   3.14 200 7,310 2024-07-12 12:45:00 SGTI3
03339500 SUGAR CREEK AT CRAWFORDSVILLE, IN 15 4.16 321 36,000 2024-07-12 13:45:00 CRWI3
03340500 WABASH RIVER AT MONTEZUMA, IN 14 15.89 25,600 230,000 2024-07-12 13:45:00 MTZI3
03340800 BIG RACCOON CREEK NEAR FINCASTLE, IN 11 2.72 83.5 39,900 2024-07-12 13:30:00 FINI3
03340870 CECIL M. HARDEN LAKE AT FERNDALE, IN 690 662.48

 

  2024-07-12 14:15:00 CHLI3
03340900 BIG RACCOON CREEK AT FERNDALE, IN   6.35

 

40,500 2024-07-12 13:30:00 FRNI3
03341300 BIG RACCOON CREEK AT COXVILLE, IN 14 5.34 151 108,000 2024-07-12 13:45:00 COXI3
03341500 WABASH RIVER AT TERRE HAUTE, IN 16.5 15.28 22,700 245,000 2024-07-12 13:30:00 TERI3
03341558 SUGAR CREEK AT WEST TERRE HAUTE, IN   2.17 33.6   2024-07-11 20:45:00  
03342000 WABASH RIVER AT RIVERTON, IN 15 10.90 15,600 250,000 2024-07-12 13:00:00 RVTI3
03342500 BUSSERON CREEK NEAR CARLISLE, IN 16 2.03 37.5 8,800 2024-07-12 13:00:00 CRLI3
03343010 WABASH RIVER AT MEMORIAL BRIDGE AT VINCENNES, IN 16 6.85 10,800 97,800 2024-07-12 13:45:00 VCNI3
03347000 WHITE RIVER AT MUNCIE, IN 9 4.14 56.2 20,000 2024-07-12 13:30:00 MIEI3
03347598 BUCK CREEK AT YORKTOWN, IN   4.19

 

  2024-07-12 13:15:00  
03348000 WHITE RIVER AT ANDERSON, IN 10 4.55 207 28,000 2024-07-12 13:30:00 ANDI3
03348130 WHITE RIVER AT RAIBLE AVENUE AT ANDERSON, IN 10 2.62 263 15,200 2024-07-12 13:00:00 ADNI3
03348350 PIPE CREEK AT FRANKTON, IN 10 3.67 48.1 5,630 2024-07-12 13:30:00 FTNI3
033483827 BIG DUCK CREEK AT 14TH STREET PARK AT ELWOOD, IN 8 4.00 13.9 1,120 2024-07-12 13:15:00 BDCI3
03348502 WHITE RIVER NEAR STRAWTOWN, IN 12 3.84

 

  2024-07-12 13:30:00 WRSI3
03349000 WHITE RIVER AT NOBLESVILLE, IN 14 4.23 353 27,000 2024-07-12 12:45:00 NBLI3
03349210 CICERO CREEK AT TIPTON, IN 10 3.61 110 6,150 2024-07-12 13:30:00 CCTI3
03349510 CICERO CREEK AT ARCADIA, IN 9 4.74 276 8,050 2024-07-12 13:30:00 CCAI3
03350400 MORSE RESERVOIR AT NOBLESVILLE, IN   10.08

 

  2024-07-12 13:45:00 NMSI3
03350500 CICERO CREEK AT NOBLESVILLE, IN   7.31 880 9,800 2024-07-12 12:45:00 CCNI3
03350655 STONY CREEK AT FISHERSBURG, IN 8 3.60 2.22 1,510 2024-07-12 12:45:00 SCFI3
03350660 WILLIAM LOCK DITCH NEAR DURBIN, IN 12 6.40 0.00 1,100 2024-07-12 13:00:00 WLDI3
03350700 STONY CREEK NEAR NOBLESVILLE, IN 6 1.98 13.1 2,680 2024-07-12 13:15:00 SCNI3
03350800 WHITE RIVER AT CONNER PRAIRIE NEAR NOBLESVILLE, IN 13 5.23 1,440 24,700 2024-07-12 13:30:00 WHNI3
03351000 WHITE RIVER NEAR NORA, IN 11 4.75 2,050 58,500 2024-07-12 13:00:00 NORI3
03351005 WHITE RIVER AT RAVENSWOOD, IN 9 3.96

 

  2024-07-12 13:45:00 WRRI3
03351060 WHITE RIVER AT BROAD RIPPLE, IN 6 3.31

 

  2024-07-12 13:45:00 BRDI3
03351071 WHITE RIVER BELOW DAM AT BROAD RIPPLE, IN 8.5 2.90

 

  2024-07-12 13:15:00 BBDI3
03351072 WILLIAMS CREEK AT 96TH STREET, INDIANAPOLIS, IN 9 3.68 33.3 2,660 2024-07-12 13:45:00 WCRI3
03351201 WHITE RIVER AT INDIANAPOLIS MUSEUM OF ART, IN 12 5.95 1,640 27,700 2024-07-12 13:15:00 IMAI3
03351310 CROOKED CREEK AT INDIANAPOLIS, IN 8 3.20 28.1 5,500 2024-07-12 13:15:00 CCII3
03351350 WHITE RIVER AT 16TH STREET AT INDIANAPOLIS, IN 17 7.48 1,580 20,000 2024-07-12 13:30:00 WHSI3
03351500 FALL CREEK NEAR FORTVILLE, IN 8 1.55 78.9 10,900 2024-07-12 13:45:00 FCFI3
03351700 GEIST RESERVOIR AT INDIANAPOLIS, IN   9.93

 

  2024-07-12 12:45:00 OLNI3
03351710 FALL CREEK AT 79TH ST AT INDIANAPOLIS, IN   5.09 105   2024-07-12 13:30:00  
033521504 SAND CREEK AT 116TH STREET AT FISHERS, IN 5.5 2.05 3.72 503 2024-07-12 13:15:00 SDFI3
03352162 MUD CREEK AT FISHERS, IN 7 2.70 8.45 1,730 2024-07-12 13:45:00 MCFI3
03352500 FALL CREEK AT MILLERSVILLE, IN 10 2.72 250 22,000 2024-07-12 12:45:00 MLRI3
03352690 LAKE MAXINHALL AT INDIANAPOLIS, IN   3.60

 

  2024-07-12 13:00:00  
03352695 HERON LAKE AT INDIANAPOLIS, IN   4.58

 

  2024-07-12 13:00:00  
03352875 FALL CREEK AT 16TH STREET AT INDIANAPOLIS, IN 12 7.48 329 6,910 2024-07-12 13:15:00 FCSI3
03352953 WHITE RIVER AT MICHIGAN STREET AT INDIANAPOLIS, IN 16 8.59 1,850 36,700 2024-07-12 13:15:00 IUPI3
03352972 POGUES RUN ABOVE DAM AT INDIANAPOLIS, IN 19.5 6.39

 

  2024-07-12 13:00:00 PRDI3
03352988 POGUES RUN AT VERMONT STREET AT INDIANAPOLIS, IN 9 2.76 70.5 1,250 2024-07-12 13:45:00 PRVI3
03353000 WHITE RIVER AT INDIANAPOLIS, IN 16 5.51 2,380 70,000 2024-07-12 12:45:00 INDI3
03353120 PLEASANT RUN AT ARLINGTON AV AT INDIANAPOLIS, IN 8 3.27 8.38 2,600 2024-07-12 13:15:00 PRII3
033531908 GERMANIA CREEK AT WEST STREET AT INDIANAPOLIS, IN   7.81

 

  2024-07-12 13:30:00 GRMI3
03353200 EAGLE CREEK AT ZIONSVILLE, IN 9 3.37 598 17,400 2024-07-12 13:45:00 ZONI3
03353240 EAGLE CREEK AT 79TH STREET AT INDIANAPOLIS, IN 11.5 6.97

 

  2024-07-12 13:30:00 ETPI3
03353415 SCHOOL BRANCH AT MALONEY ROAD NEAR BROWNSBURG, IN   2.00 1.50 343 2024-07-12 13:15:00 SBMI3
03353420 SCHOOL BRANCH AT CR750N AT BROWNSBURG, IN   1.47 5.25 557 2024-07-12 13:00:00 SBCI3
03353450 EAGLE CREEK RESERVOIR NEAR INDIANAPOLIS, IN 811.5 790.83

 

  2024-07-12 13:30:00 ECRI3
03353451 EAGLE CREEK BELOW RESERVOIR AT INDIANAPOLIS, IN   5.70 11.1   2024-07-12 13:30:00 ECRI3
03353460 EAGLE CREEK AT CLERMONT, IN 9 6.00 1,790 13,000 2024-07-12 13:15:00 ECCI3
03353500 EAGLE CREEK AT INDIANAPOLIS, IN 9 5.91 2,290 28,800 2024-07-12 13:45:00 INSI3
03353600 LITTLE EAGLE CREEK AT SPEEDWAY, IN 6 0.62 25.2 3,870 2024-07-12 13:15:00 SPEI3
03353603 NEELD DITCH NEAR MARS HILL, IN   0.17

 

  2024-07-12 13:00:00  
033536062 EAGLE CREEK AT RAYMOND ST AT INDIANAPOLIS, IN 14 7.11

 

  2024-07-12 13:30:00 ERSI3
03353611 WHITE R. AT STOUT GEN. STN. AT INDIANAPOLIS, IN 10 4.47 3,520 51,500 2024-07-12 13:45:00 STTI3
03353620 LICK CREEK AT INDIANAPOLIS, IN 7 1.36 13.8 2,710 2024-07-12 13:15:00 LCII3
03353626 STATE DITCH AT MARS HILL, IN   1.60

 

  2024-07-12 13:00:00  
03353633 DERBYSHIRE CK ABOVE MCFARLAND RD AT SOUTHPORT, IN   3.85

 

  2024-05-27 06:45:00 HOMI3
03353638 LITTLE BUCK CREEK AT TIBBS AV NR INDIANAPOLIS, IN   3.57 4.96 1,060 2024-07-12 13:45:00 LBKI3
03353700 WEST FORK WHITE LICK CREEK AT DANVILLE, IN   4.49 4.62 7,090 2024-07-12 12:45:00 WWDI3
03353800 WHITE LICK CREEK AT MOORESVILLE, IN 17 8.28 523 22,000 2024-07-12 13:30:00 MOOI3
03353910 EAST FORK WHITE LICK CREEK AT MOORESVILLE, IN 10 4.47 120 3,640 2024-07-12 13:30:00 EFWI3
03354000 WHITE RIVER NEAR CENTERTON, IN 12 3.23 3,060 90,000 2024-07-12 13:00:00 CNTI3
03357000 WHITE RIVER AT SPENCER, IN 14 4.47 2,480 100,000 2024-07-12 13:30:00 SPNI3
03357330 BIG WALNUT CREEK NEAR ROACHDALE, IN 12 5.26 71.8 18,600 2024-07-12 13:15:00 RCHI3
03357350 PLUM CREEK NEAR BAINBRIDGE, IN 4 1.76 0.80 1,000 2024-07-12 13:15:00 PCBI3
03357500 BIG WALNUT CREEK NEAR REELSVILLE, IN 12 2.25

 

30,700 2024-07-12 13:30:00 RLVI3
03358000 MILL CREEK NEAR CATARACT, IN 15 4.67 30.9 12,200 2024-07-12 13:15:00 CATI3
03358900 CAGLES MILL LAKE NEAR MANHATTAN, IN 704 640.06

 

  2024-07-12 14:15:00 CAGI3
03359000 MILL CREEK NEAR MANHATTAN, IN 14 7.85

 

8,960 2024-07-12 13:15:00 MANI3
03360000 EEL RIVER AT BOWLING GREEN, IN 15 3.05 193 46,000 2024-07-12 13:30:00 BOLI3
03360500 WHITE RIVER AT NEWBERRY, IN 13 3.91 3,130 138,000 2024-07-12 13:30:00 NWBI3
03360590 EPSOM LATERAL NEAR PLAINVILLE, IN   472.41

 

  2024-07-08 14:56:00  
03360600 SMOTHERS CREEK NR PLAINVILLE, IN 16 4.98 4.76 1,610 2024-07-12 12:45:00 SCPI3
03360652 BEE HUNTER DITCH AT LINTON, IN   4.05 0.53 388 2024-07-12 13:45:00 BHDI3
03360730 WHITE RIVER NEAR EDWARDSPORT, IN 15 6.43 2,770 61,400 2024-07-12 13:30:00 EDWI3
03361000 BIG BLUE RIVER AT CARTHAGE, IN 7 0.37

 

12,900 2024-07-12 13:45:00 CARI3
03361440 LITTLE BLUE RIVER AT SHELBYVILLE, IN 7.5 4.95 88.3 6,350 2024-07-12 13:45:00 LBRI3
03361500 BIG BLUE RIVER AT SHELBYVILLE, IN 13 5.27 295 17,400 2024-07-12 13:45:00 SBVI3
03361605 BRANDYWINE CREEK AT GREENFIELD, IN 9 4.21 15.0 1,590 2024-07-12 13:30:00 BCGI3
03361617 BRANDYWINE CREEK NEAR FAIRLAND, IN   4.80 83.8   2024-07-12 13:15:00  
03361650 SUGAR CREEK AT NEW PALESTINE, IN 8 2.79 25.4 5,020 2024-07-12 13:30:00 NPLI3
03361850 BUCK CREEK AT ACTON, IN 9 2.20 51.1 7,140 2024-07-12 13:00:00 ACTI3
03361872 SUGAR CREEK NEAR BOGGSTOWN, IN   4.37 198 7,940 2024-07-12 13:30:00 SCBI3
03362000 YOUNGS CREEK NEAR EDINBURGH, IN 7 3.35 253 20,500 2024-07-12 13:15:00 AMTI3
03362500 SUGAR CREEK NEAR EDINBURGH, IN 10 5.51 892 39,900 2024-07-12 13:00:00 EDNI3
03363000 DRIFTWOOD RIVER NEAR EDINBURGH, IN 11 4.38 1,490 40,500 2024-07-12 13:30:00 DREI3
03363220 FLATROCK RIVER NEAR RALEIGH, IN 7 3.59

 

  2024-07-12 13:45:00 RALI3
03363400 FLATROCK RIVER NR RUSHVILLE, IN 11 6.06

 

  2024-07-12 13:30:00 RSHI3
03363500 FLATROCK RIVER AT ST. PAUL, IN 6 1.47 374 18,500 2024-07-12 13:45:00 STPI3
03363900 FLATROCK RIVER AT COLUMBUS, IN 11 4.38 648 62,500 2024-07-12 13:30:00 FLCI3
03364000 EAST FORK WHITE RIVER AT COLUMBUS, IN 9 -0.33 1,780 100,000 2024-07-12 13:00:00 BAKI3
03364042 HAW CREEK AT HOPE, IN 9 2.18 6.51 4,360 2024-07-12 13:00:00 HCHI3
03364200 HAW CREEK NEAR CLIFFORD, IN 12 3.24 34.7 4,500 2024-07-12 13:30:00 HCCI3
03364340 HAW CREEK AT EAST COLUMBUS, IN 12.5 3.06

 

  2024-07-12 13:30:00 HCEI3
03364500 CLIFTY CREEK AT HARTSVILLE, IN 9 1.15 42.6 16,200 2024-07-12 13:00:00 CCHI3
03364650 CLIFTY CREEK NEAR COLUMBUS, IN 17 5.14 132 21,600 2024-07-12 13:15:00 CCCI3
03365500 EAST FORK WHITE RIVER AT SEYMOUR, IN 12 4.81 1,910 120,000 2024-07-12 12:45:00 SERI3
03366500 MUSCATATUCK RIVER NEAR DEPUTY, IN 25 3.56 54.7 52,200 2024-07-12 13:30:00 DEPI3
03368000 BRUSH CREEK NEAR NEBRASKA, IN 8 1.88 0.76 9,360 2024-07-12 13:15:00 NEBI3
03369500 VERNON FORK MUSCATATUCK RIVER AT VERNON, IN 17 2.92 87.5 56,800 2024-07-12 13:30:00 VRNI3
03371500 EAST FORK WHITE RIVER NEAR BEDFORD, IN 20 6.98 2,790 155,000 2024-07-12 13:30:00 BEDI3
03371600 SOUTH FORK SALT CREEK AT KURTZ, IN   2.97 2.04 6,400 2024-07-12 12:45:00 KRZI3
03371650 NORTH FORK SALT CREEK AT NASHVILLE, IN 14 4.53 0.56 7,200 2024-07-12 13:45:00 NFSI3
03372400 MONROE LAKE NEAR HARRODSBURG, IN 556 538.29

 

  2024-07-12 14:25:00 MONI3
03372500 SALT CREEK NEAR HARRODSBURG, IN 20 6.35

 

22,000 2024-07-12 13:45:00 HDBI3
03373500 EAST FORK WHITE RIVER AT SHOALS, IN 20 3.63 2,050 160,000 2024-07-12 13:30:00 SHLI3
03373508 BEAVER CREEK NEAR SHOALS, IN 7 1.88 2.22 3,350 2024-07-12 13:45:00 BCSI3
03373560 LOST RIVER NEAR PROSPECT, IN   8.52 34.0 6,610 2024-07-12 13:15:00 PSPI3
03373610 LICK CREEK AT PAOLI, IN   3.08 5.31 3,140 2024-07-12 13:30:00 POLI3
03373980 WHITE RIVER ABOVE PETERSBURG, IN 16 4.20

 

2024-07-12 13:30:00 PETI3
03374000 WHITE RIVER AT PETERSBURG, IN 16 4.17 5,230 235,000 2024-07-12 13:45:00 PTRI3
03374100 WHITE RIVER AT HAZLETON, IN 16 4.53 5,530 138,000 2024-07-12 13:45:00 HZNI3
03374498 PATOKA LAKE NEAR CUZCO, IN 548 535.15

 

  2024-07-12 14:15:00 PRLI3
03374500 PATOKA RIVER NEAR CUZCO, IN   3.88

 

14,700 2024-07-12 14:45:00 PLTI3
03375500 PATOKA RIVER AT JASPER, IN   5.70 65.6 16,000 2024-07-12 13:15:00 JPRI3
03376300 PATOKA RIVER AT WINSLOW, IN   14.93 1,160 15,500 2024-07-12 13:30:00 WNSI3
03376500 PATOKA RIVER NEAR PRINCETON, IN 18 11.67 1,820 18,700 2024-07-12 13:45:00 PNTI3
03377500 WABASH RIVER AT MT. CARMEL, IL 19 6.50 18,500 428,000 2024-07-12 13:00:00 MCRI2
03378500 WABASH RIVER AT NEW HARMONY, IN 15 4.00 16,600 317,000 2024-07-12 12:30:00 NHRI3
03378550 BIG CREEK NEAR WADESVILLE, IN   2.39 19.9 19,000 2024-07-12 13:15:00 WADI3
04092677 GRAND CALUMET RIVER AT INDUSTRIAL HWY AT GARY, IN   3.17 398 1,480 2024-07-12 13:30:00  
04092750 INDIANA HARBOR CANAL AT EAST CHICAGO, IN 13 10.74 1,410 9,580 2024-07-12 13:00:00 IHCI3
04092944 DEEP RIVER AT GRAND BLVD AT MERRILLVILLE, IN 8.5 3.86

 

  2024-07-12 13:15:00 MDRI3
04092964 TURKEY CREEK AT JOLIET ST AT SCHERERVILLE, IN 7.5 3.77

 

  2024-07-12 13:15:00 TCSI3
04092977 TURKEY CREEK AT 61ST AV AT MERRILLVILLE, IN 11 5.67

 

  2024-07-12 13:15:00 MTCI3
04093000 DEEP RIVER AT LAKE GEORGE OUTLET AT HOBART, IN 13 5.34 137 5,280 2024-07-12 13:30:00 HLGI3
04093100 DEEP RIVER NEAR LIVERPOOL, IN 17.5 6.97

 

  2024-07-12 13:15:00 LIVI3
04093176 LITTLE CALUMET RIVER AT GRANT ST AT GARY, IN 11 6.10

 

  2024-07-12 13:15:00 GRGI3
04093250 LITTLE CALUMET RIVER NEAR LAKE STATION, IN 13 3.36

 

  2024-07-12 13:15:00 LAKI3
04093503 BURNS DITCH AT USHWY 20 AT LAKE STATION, IN   8.41

 

  2024-07-12 13:15:00  
04094000 LITTLE CALUMET RIVER AT PORTER, IN 8 3.27 44.9 5,320 2024-07-12 13:45:00 PRTI3
04094400 SALT CREEK AT VALPARAISO, IN 8 3.36 13.6 639 2024-07-12 13:00:00 SCRI3
04095090 PORTAGE-BURNS WATERWAY AT PORTAGE, IN   5.90 606 16,000 2024-07-12 13:30:00 PBPI3
04095300 TRAIL CREEK AT MICHIGAN CITY, IN   2.10 51.7 4,240 2024-07-12 13:30:00 TCRI3
04095380 TRAIL CREEK AT MICHIGAN CITY HARBOR, IN   6.92 134 4,330 2024-07-12 13:35:00 MGNI3
04099510 PIGEON CREEK NR ANGOLA, IN 11 6.48 177 1,000 2024-07-12 13:30:00 AQPI3
04099750 PIGEON RIVER NEAR SCOTT, IN 6 5.18 720 2,450 2024-07-12 13:15:00 SCOI3
04100180 SYLVAN LAKE AT ROME CITY, IN   9.74

 

  2024-07-12 13:00:00 SYLI3
04100220 WALDRON LAKE NEAR COSPERVILLE, IN   7.68

 

889 2024-07-12 13:00:00 WLKI3
04100222 NB ELKHART RIVER AT COSPERVILLE, IN 6 5.09 140 839 2024-07-12 13:30:00 CPEI3
04100500 ELKHART RIVER AT GOSHEN, IN 7 6.03 2,230 6,360 2024-07-12 13:45:00 GSHI3
04101000 ST. JOSEPH RIVER AT ELKHART, IN 24 22.84 8,480 26,000 2024-07-12 13:30:00 EKMI3
04101225 ST. JOSEPH RIVER AT SOUTH BEND, IN 5.5 6.50 11,500 13,600 2024-07-12 13:15:00 SBNI3
04101370 JUDY CREEK NEAR SOUTH BEND, IN   2.59 28.2 500 2024-07-12 13:30:00 JCRI3
04177700 HAMILTON LAKE AT HAMILTON, IN   8.94

 

  2024-07-12 13:00:00 HMLI3
04177720 FISH CREEK AT HAMILTON, IN 9 5.60 114 1,510 2024-07-12 13:45:00 FLTI3
04179520 CEDAR CREEK AT 18TH STREET AT AUBURN, IN 9 3.95 226 2,290 2024-07-12 13:00:00 ABBI3
04180000 CEDAR CREEK NEAR CEDARVILLE, IN 18 2.79 501 5,750 2024-07-12 13:30:00 CDRI3
04180500 ST. JOSEPH RIVER NEAR FORT WAYNE, IN 12 4.21 1,460 16,500 2024-07-12 08:20:00 ROOI3
04180610 ST. JOSEPH R AT PARNELL AV AT FORT WAYNE, IN   8.94 860 11,500 2024-07-12 13:45:00 SJRI3
04181100 BLUE CREEK NR PLEASANT MILLS, IN   4.23 19.5   2024-07-12 08:00:00  
04181120 ST. MARYS RIVER AT PLEASANT MILLS, IN   7.50 506 6,640 2024-07-12 13:00:00 PLMI3
04181500 ST. MARYS RIVER AT DECATUR, IN 17 6.21 520 15,000 2024-07-12 08:15:00 DCRI3
04182000 ST. MARYS RIVER NEAR FORT WAYNE, IN 14 3.22 521 16,000 2024-07-12 08:20:00 SASI3
04182755 JUNK DITCH AT FORT WAYNE, IN   3.13 0.16 117 2024-07-12 13:15:00 JUNI3
04182769 ST. MARYS RIVER AT MAIN ST. AT FORT WAYNE, IN   9.31 494 13,300 2024-07-12 08:20:00 FWAI3
04182808 SPY RUN CREEK NEAR PARK DRIVE AT FORT WAYNE, IN 11 6.00 5.74 1,910 2024-07-12 13:00:00 SPYI3
04182830 MAUMEE RIVER AT COLUMBIA ST AT FORT WAYNE, IN   13.91

 

  2024-07-12 13:00:00 CMBI3
04182900 MAUMEE RIVER AT FORT WAYNE, IN 17 5.54 2,160 18,400 2024-07-12 08:20:00 FTWI3
04182950 MAUMEE RIVER AT COLISEUM BLVD AT FORT WAYNE, IN 17 6.65 2,160 21,800 2024-07-12 13:15:00 COMI3
04183000 MAUMEE RIVER AT NEW HAVEN, IN 17 6.95 2,190 26,600 2024-07-12 13:30:00 NHVI3
04183032 BLACK CREEK AT BRUSH COLLEGE RD NEAR HARLAN, IN   1.46

 

  2024-07-12 08:00:00  
04183038 BLACK CREEK NEAR HARLAN, IN   1.93 2.16 709 2024-07-12 07:00:00  
05515500 KANKAKEE RIVER AT DAVIS, IN 10 8.75 1,110 2,040 2024-07-12 13:00:00 DAVI3
05516500 YELLOW RIVER AT PLYMOUTH, IN 13 12.13 1,870 5,670 2024-07-12 13:45:00 PYMI3
05516665 YELLOW RIVER NEAR OAK GROVE, IN   7.75 1,780 6,590 2024-07-12 13:15:00 OGRI3
05517000 YELLOW RIVER AT KNOX, IN 10 8.07 2,070 5,900 2024-07-12 13:45:00 KNXI3
05517500 KANKAKEE RIVER AT DUNNS BRIDGE, IN 10 9.06 3,170 5,870 2024-07-12 13:00:00 DBRI3
05517530 KANKAKEE RIVER NR KOUTS, IN 11 9.79 3,130 6,420 2024-07-12 13:00:00 KTSI3
05518000 KANKAKEE RIVER AT SHELBY, IN 10.5 9.01 3,240 7,650 2024-07-12 13:45:00 SLBI3
05520980 IROQUOIS RIVER NEAR PARR, IN   3.81 0.00 159 2024-07-12 13:15:00  
05522500 IROQUOIS RIVER AT RENSSELAER, IN 12 9.07 778 3,010 2024-07-12 13:30:00 RZLI3
05523865 CARPENTER CREEK AT REMINGTON, IN 9 4.74 82.6 2,380 2024-07-12 13:45:00 CCRI3
05524500 IROQUOIS RIVER NEAR FORESMAN, IN 18 16.22 1,400 6,480 2024-07-12 12:45:00 FSMI3
05536160 LITTLE CALUMET RIVER NEAR HAMMOND, IN 14 5.84

 

  2024-07-12 13:30:00 HMMI3
05536165 LITTLE CALUMET RIVER AT HIGHLAND, IN 15 8.09

 

2024-07-12 13:15:00 HGLI3
05536179 HART DITCH AT DYER, IN 12 2.15 7.89 3,110 2024-07-12 13:00:00 HDDI3
05536190 HART DITCH AT MUNSTER, IN 6 0.76 26.0 3,840 2024-07-12 13:45:00 MNTI3
05536191 LITTLE CALUMET R AT NORTHCOTE AV AT MUNSTER, IN 18 9.87

 

  2024-07-12 13:00:00 LCNI3
05536195 LITTLE CALUMET RIVER AT MUNSTER, IN 12 5.45 25.3 1,510 2024-07-12 13:00:00 LCMI3
05536356 GRAND CALUMET RIVER AT COLUMBIA AV AT HAMMOND, IN 9.5 7.47 38.1   2024-07-12 13:00:00 HGCI3
374815087555101 BAYOU DRAIN NEAR HOVEY, IN   11.51

 

  2024-07-12 13:15:00  
411228084541701 OVERLAND FLOW WEST OF BULL RAPIDS RD NR HARLAN, IN   0.00 0.0030   2024-07-12 07:00:00  
411228084541702 DRAIN TILE WEST OF BULL RAPIDS RD NR HARLAN, IN   -0.10

 

  2024-07-12 07:00:00  
411229084541101 OVERLAND FLOW EAST OF BULL RAPIDS RD NR HARLAN, IN   -0.02 0.0000   2024-07-12 07:00:00  
411229084541102 DRAIN TILE EAST OF BULL RAPIDS RD NR HARLAN, IN   0.14 0.0110   2024-07-12 07:00:00  
412355086421001 KANKAKEE RIVER BELOW USHWY 30 NEAR HANNA, IN   4.25

 

  2024-07-12 13:00:00  
413028087303601 HART DITCH AT DYER, IN (LCRDAN)   2.16

 

  2024-07-12 13:15:00  
413339087223001 LITTLE CALUMET RIVER AT BURR STREET AT GARY, IN 11 5.04

 

  2024-07-12 13:15:00 GBSI3